sensor_id;sensor_type;location;lat;lon;timestamp;P1;durP1;ratioP1;P2;durP2;ratioP2
21095;SDS011;10706;49.036;12.112;2022-12-11T00:00:56;22.53;;;8.83;;
21095;SDS011;10706;49.036;12.112;2022-12-11T00:03:22;25.03;;;9.70;;
21095;SDS011;10706;49.036;12.112;2022-12-11T00:05:48;26.50;;;9.30;;
21095;SDS011;10706;49.036;12.112;2022-12-11T00:08:14;21.87;;;8.00;;
21095;SDS011;10706;49.036;12.112;2022-12-11T00:10:45;26.40;;;8.83;;
21095;SDS011;10706;49.036;12.112;2022-12-11T00:13:13;23.57;;;8.43;;
21095;SDS011;10706;49.036;12.112;2022-12-11T00:15:39;23.87;;;8.87;;
21095;SDS011;10706;49.036;12.112;2022-12-11T00:18:05;25.00;;;9.17;;
21095;SDS011;10706;49.036;12.112;2022-12-11T00:20:30;19.80;;;8.47;;
21095;SDS011;10706;49.036;12.112;2022-12-11T00:22:56;23.03;;;9.50;;
21095;SDS011;10706;49.036;12.112;2022-12-11T00:25:22;26.53;;;9.57;;
21095;SDS011;10706;49.036;12.112;2022-12-11T00:27:47;20.83;;;8.23;;
21095;SDS011;10706;49.036;12.112;2022-12-11T00:30:13;25.83;;;8.70;;
21095;SDS011;10706;49.036;12.112;2022-12-11T00:32:39;20.70;;;8.27;;
21095;SDS011;10706;49.036;12.112;2022-12-11T00:35:05;23.53;;;9.20;;
21095;SDS011;10706;49.036;12.112;2022-12-11T00:37:31;22.40;;;9.37;;
21095;SDS011;10706;49.036;12.112;2022-12-11T00:39:56;25.50;;;8.43;;
21095;SDS011;10706;49.036;12.112;2022-12-11T00:42:22;22.10;;;8.67;;
21095;SDS011;10706;49.036;12.112;2022-12-11T00:44:48;22.90;;;9.33;;
21095;SDS011;10706;49.036;12.112;2022-12-11T00:47:14;21.83;;;9.47;;
21095;SDS011;10706;49.036;12.112;2022-12-11T00:49:40;25.60;;;10.13;;
21095;SDS011;10706;49.036;12.112;2022-12-11T00:52:06;23.80;;;8.57;;
21095;SDS011;10706;49.036;12.112;2022-12-11T00:54:32;24.37;;;8.73;;
21095;SDS011;10706;49.036;12.112;2022-12-11T00:56:58;28.53;;;10.70;;
21095;SDS011;10706;49.036;12.112;2022-12-11T00:59:24;25.03;;;9.83;;
21095;SDS011;10706;49.036;12.112;2022-12-11T01:01:49;22.40;;;8.77;;
21095;SDS011;10706;49.036;12.112;2022-12-11T01:04:15;26.90;;;9.10;;
21095;SDS011;10706;49.036;12.112;2022-12-11T01:06:41;23.37;;;9.30;;
21095;SDS011;10706;49.036;12.112;2022-12-11T01:09:07;24.63;;;9.67;;
21095;SDS011;10706;49.036;12.112;2022-12-11T01:11:51;25.87;;;9.50;;
21095;SDS011;10706;49.036;12.112;2022-12-11T01:14:17;23.57;;;8.57;;
21095;SDS011;10706;49.036;12.112;2022-12-11T01:16:43;23.40;;;9.03;;
21095;SDS011;10706;49.036;12.112;2022-12-11T01:19:09;24.43;;;10.73;;
21095;SDS011;10706;49.036;12.112;2022-12-11T01:21:34;28.13;;;8.87;;
21095;SDS011;10706;49.036;12.112;2022-12-11T01:24:00;22.57;;;8.70;;
21095;SDS011;10706;49.036;12.112;2022-12-11T01:26:26;25.17;;;9.83;;
21095;SDS011;10706;49.036;12.112;2022-12-11T01:28:52;21.07;;;7.77;;
21095;SDS011;10706;49.036;12.112;2022-12-11T01:31:18;22.87;;;8.53;;
21095;SDS011;10706;49.036;12.112;2022-12-11T01:33:44;23.97;;;9.13;;
21095;SDS011;10706;49.036;12.112;2022-12-11T01:36:14;22.47;;;7.67;;
21095;SDS011;10706;49.036;12.112;2022-12-11T01:38:44;26.47;;;8.93;;
21095;SDS011;10706;49.036;12.112;2022-12-11T01:41:11;22.80;;;8.57;;
21095;SDS011;10706;49.036;12.112;2022-12-11T01:46:33;23.13;;;8.70;;
21095;SDS011;10706;49.036;12.112;2022-12-11T01:49:01;19.50;;;7.70;;
21095;SDS011;10706;49.036;12.112;2022-12-11T01:51:32;20.80;;;8.53;;
21095;SDS011;10706;49.036;12.112;2022-12-11T01:54:06;23.40;;;9.27;;
21095;SDS011;10706;49.036;12.112;2022-12-11T01:56:35;18.67;;;6.83;;
21095;SDS011;10706;49.036;12.112;2022-12-11T01:59:04;26.20;;;8.40;;
21095;SDS011;10706;49.036;12.112;2022-12-11T02:01:45;22.07;;;8.03;;
21095;SDS011;10706;49.036;12.112;2022-12-11T02:04:18;21.70;;;8.17;;
21095;SDS011;10706;49.036;12.112;2022-12-11T02:06:46;21.67;;;7.43;;
21095;SDS011;10706;49.036;12.112;2022-12-11T02:09:24;23.90;;;9.17;;
21095;SDS011;10706;49.036;12.112;2022-12-11T02:20:47;20.10;;;8.00;;
21095;SDS011;10706;49.036;12.112;2022-12-11T02:23:52;24.17;;;9.10;;
21095;SDS011;10706;49.036;12.112;2022-12-11T02:29:21;20.93;;;8.00;;
21095;SDS011;10706;49.036;12.112;2022-12-11T02:32:00;22.87;;;8.87;;
21095;SDS011;10706;49.036;12.112;2022-12-11T02:34:36;23.87;;;8.27;;
21095;SDS011;10706;49.036;12.112;2022-12-11T02:37:15;21.60;;;7.83;;
21095;SDS011;10706;49.036;12.112;2022-12-11T02:39:46;20.97;;;8.27;;
21095;SDS011;10706;49.036;12.112;2022-12-11T02:42:16;21.80;;;8.33;;
21095;SDS011;10706;49.036;12.112;2022-12-11T02:44:43;20.87;;;8.47;;
21095;SDS011;10706;49.036;12.112;2022-12-11T02:47:12;19.70;;;7.33;;
21095;SDS011;10706;49.036;12.112;2022-12-11T02:49:41;22.80;;;8.77;;
21095;SDS011;10706;49.036;12.112;2022-12-11T02:52:11;20.80;;;9.00;;
21095;SDS011;10706;49.036;12.112;2022-12-11T02:54:40;23.23;;;9.27;;
21095;SDS011;10706;49.036;12.112;2022-12-11T02:57:11;21.77;;;7.47;;
21095;SDS011;10706;49.036;12.112;2022-12-11T03:00:02;23.60;;;8.17;;
21095;SDS011;10706;49.036;12.112;2022-12-11T03:02:29;21.40;;;8.30;;
21095;SDS011;10706;49.036;12.112;2022-12-11T03:04:55;21.43;;;8.17;;
21095;SDS011;10706;49.036;12.112;2022-12-11T03:07:22;23.00;;;9.10;;
21095;SDS011;10706;49.036;12.112;2022-12-11T03:09:53;23.63;;;8.57;;
21095;SDS011;10706;49.036;12.112;2022-12-11T03:12:20;22.33;;;9.17;;
21095;SDS011;10706;49.036;12.112;2022-12-11T03:14:53;22.73;;;7.97;;
21095;SDS011;10706;49.036;12.112;2022-12-11T03:17:20;25.53;;;9.47;;
21095;SDS011;10706;49.036;12.112;2022-12-11T03:20:07;24.20;;;9.00;;
21095;SDS011;10706;49.036;12.112;2022-12-11T03:23:12;20.03;;;8.40;;
21095;SDS011;10706;49.036;12.112;2022-12-11T03:26:09;23.10;;;8.00;;
21095;SDS011;10706;49.036;12.112;2022-12-11T03:31:44;23.30;;;8.80;;
21095;SDS011;10706;49.036;12.112;2022-12-11T03:34:15;25.77;;;8.63;;
21095;SDS011;10706;49.036;12.112;2022-12-11T03:36:48;23.73;;;8.70;;
21095;SDS011;10706;49.036;12.112;2022-12-11T03:39:38;19.33;;;8.20;;
21095;SDS011;10706;49.036;12.112;2022-12-11T03:42:06;21.17;;;8.97;;
21095;SDS011;10706;49.036;12.112;2022-12-11T03:44:37;27.83;;;9.67;;
21095;SDS011;10706;49.036;12.112;2022-12-11T03:47:05;29.03;;;10.50;;
21095;SDS011;10706;49.036;12.112;2022-12-11T03:49:39;25.77;;;9.30;;
21095;SDS011;10706;49.036;12.112;2022-12-11T03:52:08;21.60;;;9.07;;
21095;SDS011;10706;49.036;12.112;2022-12-11T03:54:36;26.57;;;9.03;;
21095;SDS011;10706;49.036;12.112;2022-12-11T03:57:04;22.60;;;9.40;;
21095;SDS011;10706;49.036;12.112;2022-12-11T03:59:31;24.03;;;10.17;;
21095;SDS011;10706;49.036;12.112;2022-12-11T04:01:57;28.57;;;9.47;;
21095;SDS011;10706;49.036;12.112;2022-12-11T04:04:23;23.17;;;9.20;;
21095;SDS011;10706;49.036;12.112;2022-12-11T04:06:49;25.87;;;9.60;;
21095;SDS011;10706;49.036;12.112;2022-12-11T04:09:15;19.70;;;8.20;;
21095;SDS011;10706;49.036;12.112;2022-12-11T04:11:41;25.93;;;9.23;;
21095;SDS011;10706;49.036;12.112;2022-12-11T04:14:10;26.07;;;9.40;;
21095;SDS011;10706;49.036;12.112;2022-12-11T04:16:57;29.80;;;9.40;;
21095;SDS011;10706;49.036;12.112;2022-12-11T04:19:24;22.33;;;8.87;;
21095;SDS011;10706;49.036;12.112;2022-12-11T04:22:09;23.97;;;8.53;;
21095;SDS011;10706;49.036;12.112;2022-12-11T04:24:55;26.40;;;9.33;;
21095;SDS011;10706;49.036;12.112;2022-12-11T04:27:21;22.47;;;8.37;;
21095;SDS011;10706;49.036;12.112;2022-12-11T04:30:07;26.53;;;10.10;;
21095;SDS011;10706;49.036;12.112;2022-12-11T04:32:36;28.03;;;11.10;;
21095;SDS011;10706;49.036;12.112;2022-12-11T04:35:02;25.17;;;10.83;;
21095;SDS011;10706;49.036;12.112;2022-12-11T04:37:29;25.73;;;9.93;;
21095;SDS011;10706;49.036;12.112;2022-12-11T04:39:55;23.63;;;9.67;;
21095;SDS011;10706;49.036;12.112;2022-12-11T04:42:21;27.13;;;9.87;;
21095;SDS011;10706;49.036;12.112;2022-12-11T04:44:47;25.40;;;9.73;;
21095;SDS011;10706;49.036;12.112;2022-12-11T04:47:12;26.43;;;10.73;;
21095;SDS011;10706;49.036;12.112;2022-12-11T04:49:38;22.80;;;9.40;;
21095;SDS011;10706;49.036;12.112;2022-12-11T04:52:04;26.93;;;10.57;;
21095;SDS011;10706;49.036;12.112;2022-12-11T04:54:30;32.67;;;10.33;;
21095;SDS011;10706;49.036;12.112;2022-12-11T04:56:56;25.77;;;11.07;;
21095;SDS011;10706;49.036;12.112;2022-12-11T04:59:22;29.67;;;10.37;;
21095;SDS011;10706;49.036;12.112;2022-12-11T05:01:48;33.50;;;11.27;;
21095;SDS011;10706;49.036;12.112;2022-12-11T05:04:13;27.80;;;11.03;;
21095;SDS011;10706;49.036;12.112;2022-12-11T05:06:39;26.43;;;10.93;;
21095;SDS011;10706;49.036;12.112;2022-12-11T05:09:05;25.47;;;11.07;;
21095;SDS011;10706;49.036;12.112;2022-12-11T05:11:34;33.63;;;10.90;;
21095;SDS011;10706;49.036;12.112;2022-12-11T05:14:00;28.50;;;10.37;;
21095;SDS011;10706;49.036;12.112;2022-12-11T05:16:26;32.57;;;10.57;;
21095;SDS011;10706;49.036;12.112;2022-12-11T05:18:52;27.67;;;9.97;;
21095;SDS011;10706;49.036;12.112;2022-12-11T05:21:18;28.17;;;10.80;;
21095;SDS011;10706;49.036;12.112;2022-12-11T05:23:43;26.27;;;10.57;;
21095;SDS011;10706;49.036;12.112;2022-12-11T05:26:11;26.67;;;10.13;;
21095;SDS011;10706;49.036;12.112;2022-12-11T05:28:41;27.63;;;9.80;;
21095;SDS011;10706;49.036;12.112;2022-12-11T05:31:11;29.27;;;11.57;;
21095;SDS011;10706;49.036;12.112;2022-12-11T05:33:41;29.00;;;11.67;;
21095;SDS011;10706;49.036;12.112;2022-12-11T05:36:09;31.10;;;12.20;;
21095;SDS011;10706;49.036;12.112;2022-12-11T05:38:50;32.63;;;11.80;;
21095;SDS011;10706;49.036;12.112;2022-12-11T05:41:18;31.87;;;11.27;;
21095;SDS011;10706;49.036;12.112;2022-12-11T05:43:47;30.93;;;11.30;;
21095;SDS011;10706;49.036;12.112;2022-12-11T05:46:14;29.00;;;10.60;;
21095;SDS011;10706;49.036;12.112;2022-12-11T05:48:44;27.43;;;11.67;;
21095;SDS011;10706;49.036;12.112;2022-12-11T05:51:13;26.23;;;11.07;;
21095;SDS011;10706;49.036;12.112;2022-12-11T05:53:40;28.33;;;10.80;;
21095;SDS011;10706;49.036;12.112;2022-12-11T05:56:09;27.67;;;10.07;;
21095;SDS011;10706;49.036;12.112;2022-12-11T05:58:38;26.60;;;10.73;;
21095;SDS011;10706;49.036;12.112;2022-12-11T06:01:06;29.90;;;11.57;;
21095;SDS011;10706;49.036;12.112;2022-12-11T06:03:35;25.67;;;11.07;;
21095;SDS011;10706;49.036;12.112;2022-12-11T06:06:02;27.37;;;11.07;;
21095;SDS011;10706;49.036;12.112;2022-12-11T06:08:29;26.33;;;10.23;;
21095;SDS011;10706;49.036;12.112;2022-12-11T06:10:55;31.17;;;11.40;;
21095;SDS011;10706;49.036;12.112;2022-12-11T06:13:21;26.13;;;9.40;;
21095;SDS011;10706;49.036;12.112;2022-12-11T06:15:47;29.03;;;10.53;;
21095;SDS011;10706;49.036;12.112;2022-12-11T06:18:13;28.20;;;10.87;;
21095;SDS011;10706;49.036;12.112;2022-12-11T06:20:39;26.83;;;9.97;;
21095;SDS011;10706;49.036;12.112;2022-12-11T06:23:05;25.20;;;11.03;;
21095;SDS011;10706;49.036;12.112;2022-12-11T06:25:31;28.53;;;11.67;;
21095;SDS011;10706;49.036;12.112;2022-12-11T06:27:57;25.50;;;9.80;;
21095;SDS011;10706;49.036;12.112;2022-12-11T06:30:23;34.80;;;13.53;;
21095;SDS011;10706;49.036;12.112;2022-12-11T06:32:48;32.23;;;13.57;;
21095;SDS011;10706;49.036;12.112;2022-12-11T06:35:14;34.27;;;13.07;;
21095;SDS011;10706;49.036;12.112;2022-12-11T06:37:40;26.80;;;10.67;;
21095;SDS011;10706;49.036;12.112;2022-12-11T06:40:06;30.37;;;11.60;;
21095;SDS011;10706;49.036;12.112;2022-12-11T06:42:35;27.70;;;10.47;;
21095;SDS011;10706;49.036;12.112;2022-12-11T06:45:01;27.73;;;10.50;;
21095;SDS011;10706;49.036;12.112;2022-12-11T06:47:28;21.07;;;8.17;;
21095;SDS011;10706;49.036;12.112;2022-12-11T06:49:54;29.00;;;10.60;;
21095;SDS011;10706;49.036;12.112;2022-12-11T06:52:21;26.13;;;10.37;;
21095;SDS011;10706;49.036;12.112;2022-12-11T06:54:49;28.20;;;10.80;;
21095;SDS011;10706;49.036;12.112;2022-12-11T06:57:15;26.83;;;10.57;;
21095;SDS011;10706;49.036;12.112;2022-12-11T06:59:41;24.10;;;10.13;;
21095;SDS011;10706;49.036;12.112;2022-12-11T07:02:17;26.40;;;11.50;;
21095;SDS011;10706;49.036;12.112;2022-12-11T07:04:44;24.73;;;9.83;;
21095;SDS011;10706;49.036;12.112;2022-12-11T07:07:10;24.20;;;9.67;;
21095;SDS011;10706;49.036;12.112;2022-12-11T07:09:37;26.63;;;10.07;;
21095;SDS011;10706;49.036;12.112;2022-12-11T07:12:04;23.27;;;9.10;;
21095;SDS011;10706;49.036;12.112;2022-12-11T07:14:31;28.20;;;11.07;;
21095;SDS011;10706;49.036;12.112;2022-12-11T07:16:58;27.37;;;9.80;;
21095;SDS011;10706;49.036;12.112;2022-12-11T07:19:24;29.47;;;9.73;;
21095;SDS011;10706;49.036;12.112;2022-12-11T07:21:50;30.03;;;10.60;;
21095;SDS011;10706;49.036;12.112;2022-12-11T07:24:16;27.73;;;10.67;;
21095;SDS011;10706;49.036;12.112;2022-12-11T07:26:42;27.93;;;10.23;;
21095;SDS011;10706;49.036;12.112;2022-12-11T07:29:07;29.57;;;12.93;;
21095;SDS011;10706;49.036;12.112;2022-12-11T07:31:33;26.83;;;10.53;;
21095;SDS011;10706;49.036;12.112;2022-12-11T07:34:00;26.97;;;10.40;;
21095;SDS011;10706;49.036;12.112;2022-12-11T07:36:30;27.90;;;11.00;;
21095;SDS011;10706;49.036;12.112;2022-12-11T07:38:57;29.50;;;11.63;;
21095;SDS011;10706;49.036;12.112;2022-12-11T07:41:24;31.83;;;11.83;;
21095;SDS011;10706;49.036;12.112;2022-12-11T07:43:52;29.90;;;11.87;;
21095;SDS011;10706;49.036;12.112;2022-12-11T07:46:21;28.57;;;11.20;;
21095;SDS011;10706;49.036;12.112;2022-12-11T07:48:50;25.37;;;11.00;;
21095;SDS011;10706;49.036;12.112;2022-12-11T07:51:17;31.83;;;13.07;;
21095;SDS011;10706;49.036;12.112;2022-12-11T07:53:50;34.10;;;13.00;;
21095;SDS011;10706;49.036;12.112;2022-12-11T07:56:18;28.70;;;11.63;;
21095;SDS011;10706;49.036;12.112;2022-12-11T07:58:44;28.73;;;10.97;;
21095;SDS011;10706;49.036;12.112;2022-12-11T08:01:11;30.07;;;12.07;;
21095;SDS011;10706;49.036;12.112;2022-12-11T08:03:38;29.17;;;11.27;;
21095;SDS011;10706;49.036;12.112;2022-12-11T08:06:04;31.20;;;12.13;;
21095;SDS011;10706;49.036;12.112;2022-12-11T08:08:30;28.53;;;12.87;;
21095;SDS011;10706;49.036;12.112;2022-12-11T08:10:59;27.10;;;12.40;;
21095;SDS011;10706;49.036;12.112;2022-12-11T08:13:26;34.93;;;12.90;;
21095;SDS011;10706;49.036;12.112;2022-12-11T08:15:52;31.00;;;13.47;;
21095;SDS011;10706;49.036;12.112;2022-12-11T08:18:17;34.50;;;12.73;;
21095;SDS011;10706;49.036;12.112;2022-12-11T08:20:43;32.30;;;12.30;;
21095;SDS011;10706;49.036;12.112;2022-12-11T08:23:09;32.93;;;12.50;;
21095;SDS011;10706;49.036;12.112;2022-12-11T08:25:35;30.47;;;11.40;;
21095;SDS011;10706;49.036;12.112;2022-12-11T08:28:01;28.17;;;11.40;;
21095;SDS011;10706;49.036;12.112;2022-12-11T08:30:27;26.83;;;11.03;;
21095;SDS011;10706;49.036;12.112;2022-12-11T08:32:53;27.60;;;12.27;;
21095;SDS011;10706;49.036;12.112;2022-12-11T08:35:19;29.53;;;11.67;;
21095;SDS011;10706;49.036;12.112;2022-12-11T08:37:45;28.93;;;11.00;;
21095;SDS011;10706;49.036;12.112;2022-12-11T08:40:11;29.77;;;12.07;;
21095;SDS011;10706;49.036;12.112;2022-12-11T08:42:37;28.57;;;12.63;;
21095;SDS011;10706;49.036;12.112;2022-12-11T08:45:03;33.80;;;13.97;;
21095;SDS011;10706;49.036;12.112;2022-12-11T08:47:30;31.07;;;13.13;;
21095;SDS011;10706;49.036;12.112;2022-12-11T08:49:56;30.90;;;13.13;;
21095;SDS011;10706;49.036;12.112;2022-12-11T08:52:22;32.43;;;12.60;;
21095;SDS011;10706;49.036;12.112;2022-12-11T08:54:47;28.10;;;12.13;;
21095;SDS011;10706;49.036;12.112;2022-12-11T08:57:13;31.50;;;11.93;;
21095;SDS011;10706;49.036;12.112;2022-12-11T08:59:39;28.00;;;11.23;;
21095;SDS011;10706;49.036;12.112;2022-12-11T09:02:05;28.63;;;11.67;;
21095;SDS011;10706;49.036;12.112;2022-12-11T09:04:31;27.77;;;12.13;;
21095;SDS011;10706;49.036;12.112;2022-12-11T09:06:57;24.47;;;10.83;;
21095;SDS011;10706;49.036;12.112;2022-12-11T09:09:22;27.80;;;11.27;;
21095;SDS011;10706;49.036;12.112;2022-12-11T09:11:48;27.93;;;11.50;;
21095;SDS011;10706;49.036;12.112;2022-12-11T09:14:14;23.37;;;9.70;;
21095;SDS011;10706;49.036;12.112;2022-12-11T09:16:40;30.50;;;11.07;;
21095;SDS011;10706;49.036;12.112;2022-12-11T09:19:07;24.63;;;9.33;;
21095;SDS011;10706;49.036;12.112;2022-12-11T09:21:37;22.20;;;9.27;;
21095;SDS011;10706;49.036;12.112;2022-12-11T09:24:03;25.27;;;10.73;;
21095;SDS011;10706;49.036;12.112;2022-12-11T09:26:29;23.90;;;9.30;;
21095;SDS011;10706;49.036;12.112;2022-12-11T09:28:56;25.13;;;9.70;;
21095;SDS011;10706;49.036;12.112;2022-12-11T09:31:23;24.13;;;8.90;;
21095;SDS011;10706;49.036;12.112;2022-12-11T09:33:58;25.83;;;10.17;;
21095;SDS011;10706;49.036;12.112;2022-12-11T09:36:30;24.23;;;10.20;;
21095;SDS011;10706;49.036;12.112;2022-12-11T09:39:01;20.00;;;7.97;;
21095;SDS011;10706;49.036;12.112;2022-12-11T09:41:37;24.57;;;9.63;;
21095;SDS011;10706;49.036;12.112;2022-12-11T09:47:37;24.37;;;9.50;;
21095;SDS011;10706;49.036;12.112;2022-12-11T09:50:25;22.03;;;9.67;;
21095;SDS011;10706;49.036;12.112;2022-12-11T09:55:40;25.17;;;11.30;;
21095;SDS011;10706;49.036;12.112;2022-12-11T10:01:33;22.30;;;9.90;;
21095;SDS011;10706;49.036;12.112;2022-12-11T10:10:12;23.50;;;10.27;;
21095;SDS011;10706;49.036;12.112;2022-12-11T10:13:12;22.43;;;9.37;;
21095;SDS011;10706;49.036;12.112;2022-12-11T10:16:09;25.13;;;9.10;;
21095;SDS011;10706;49.036;12.112;2022-12-11T10:19:02;25.47;;;10.57;;
21095;SDS011;10706;49.036;12.112;2022-12-11T10:21:39;25.17;;;11.10;;
21095;SDS011;10706;49.036;12.112;2022-12-11T10:24:19;29.13;;;9.87;;
21095;SDS011;10706;49.036;12.112;2022-12-11T10:27:22;26.23;;;10.03;;
21095;SDS011;10706;49.036;12.112;2022-12-11T10:30:15;24.23;;;10.40;;
21095;SDS011;10706;49.036;12.112;2022-12-11T10:35:45;25.27;;;9.43;;
21095;SDS011;10706;49.036;12.112;2022-12-11T10:38:27;30.03;;;10.30;;
21095;SDS011;10706;49.036;12.112;2022-12-11T10:41:04;24.47;;;9.33;;
21095;SDS011;10706;49.036;12.112;2022-12-11T10:43:43;24.20;;;10.00;;
21095;SDS011;10706;49.036;12.112;2022-12-11T10:48:52;24.43;;;8.60;;
21095;SDS011;10706;49.036;12.112;2022-12-11T10:53:57;19.57;;;7.60;;
21095;SDS011;10706;49.036;12.112;2022-12-11T10:56:32;22.97;;;7.97;;
21095;SDS011;10706;49.036;12.112;2022-12-11T10:59:01;18.10;;;7.03;;
21095;SDS011;10706;49.036;12.112;2022-12-11T11:01:28;19.57;;;7.73;;
21095;SDS011;10706;49.036;12.112;2022-12-11T11:04:04;17.03;;;6.77;;
21095;SDS011;10706;49.036;12.112;2022-12-11T11:06:40;15.97;;;6.30;;
21095;SDS011;10706;49.036;12.112;2022-12-11T11:09:21;15.20;;;5.87;;
21095;SDS011;10706;49.036;12.112;2022-12-11T11:12:00;18.87;;;7.70;;
21095;SDS011;10706;49.036;12.112;2022-12-11T11:14:26;16.93;;;6.50;;
21095;SDS011;10706;49.036;12.112;2022-12-11T11:16:54;15.97;;;7.07;;
21095;SDS011;10706;49.036;12.112;2022-12-11T11:19:29;18.33;;;6.57;;
21095;SDS011;10706;49.036;12.112;2022-12-11T11:22:01;15.00;;;5.70;;
21095;SDS011;10706;49.036;12.112;2022-12-11T11:24:43;14.17;;;5.47;;
21095;SDS011;10706;49.036;12.112;2022-12-11T11:27:33;13.50;;;5.40;;
21095;SDS011;10706;49.036;12.112;2022-12-11T11:33:13;14.67;;;5.67;;
21095;SDS011;10706;49.036;12.112;2022-12-11T11:35:51;14.33;;;5.60;;
21095;SDS011;10706;49.036;12.112;2022-12-11T11:38:40;17.90;;;5.67;;
21095;SDS011;10706;49.036;12.112;2022-12-11T11:44:26;15.00;;;5.77;;
21095;SDS011;10706;49.036;12.112;2022-12-11T11:47:25;16.40;;;5.93;;
21095;SDS011;10706;49.036;12.112;2022-12-11T11:50:11;14.57;;;6.00;;
21095;SDS011;10706;49.036;12.112;2022-12-11T11:52:45;15.03;;;5.43;;
21095;SDS011;10706;49.036;12.112;2022-12-11T11:55:18;14.80;;;5.13;;
21095;SDS011;10706;49.036;12.112;2022-12-11T11:59:10;14.37;;;5.37;;
21095;SDS011;10706;49.036;12.112;2022-12-11T12:01:18;12.67;;;6.07;;
21095;SDS011;10706;49.036;12.112;2022-12-11T12:03:44;14.63;;;5.13;;
21095;SDS011;10706;49.036;12.112;2022-12-11T12:14:52;9.27;;;3.50;;
21095;SDS011;10706;49.036;12.112;2022-12-11T12:23:54;8.43;;;3.00;;
21095;SDS011;10706;49.036;12.112;2022-12-11T12:26:50;12.17;;;3.50;;
21095;SDS011;10706;49.036;12.112;2022-12-11T12:32:04;8.07;;;3.13;;
21095;SDS011;10706;49.036;12.112;2022-12-11T12:37:44;8.13;;;3.30;;
21095;SDS011;10706;49.036;12.112;2022-12-11T12:40:47;7.70;;;2.90;;
21095;SDS011;10706;49.036;12.112;2022-12-11T12:51:58;7.43;;;3.10;;
21095;SDS011;10706;49.036;12.112;2022-12-11T13:35:31;13.67;;;4.97;;
21095;SDS011;10706;49.036;12.112;2022-12-11T13:38:06;12.93;;;4.83;;
21095;SDS011;10706;49.036;12.112;2022-12-11T13:40:40;11.47;;;4.90;;
21095;SDS011;10706;49.036;12.112;2022-12-11T13:43:18;12.57;;;4.90;;
21095;SDS011;10706;49.036;12.112;2022-12-11T13:45:50;12.53;;;4.90;;
21095;SDS011;10706;49.036;12.112;2022-12-11T13:50:58;12.73;;;5.27;;
21095;SDS011;10706;49.036;12.112;2022-12-11T13:53:25;15.47;;;5.57;;
21095;SDS011;10706;49.036;12.112;2022-12-11T13:55:58;16.03;;;5.20;;
21095;SDS011;10706;49.036;12.112;2022-12-11T13:58:33;13.10;;;5.70;;
21095;SDS011;10706;49.036;12.112;2022-12-11T14:03:47;15.40;;;5.97;;
21095;SDS011;10706;49.036;12.112;2022-12-11T14:06:20;14.43;;;5.87;;
21095;SDS011;10706;49.036;12.112;2022-12-11T14:08:50;14.33;;;5.67;;
21095;SDS011;10706;49.036;12.112;2022-12-11T14:11:20;15.63;;;6.40;;
21095;SDS011;10706;49.036;12.112;2022-12-11T14:13:54;17.03;;;7.10;;
21095;SDS011;10706;49.036;12.112;2022-12-11T14:16:24;16.03;;;6.37;;
21095;SDS011;10706;49.036;12.112;2022-12-11T14:18:51;15.23;;;6.33;;
21095;SDS011;10706;49.036;12.112;2022-12-11T14:21:22;16.87;;;6.03;;
21095;SDS011;10706;49.036;12.112;2022-12-11T14:23:50;15.93;;;6.13;;
21095;SDS011;10706;49.036;12.112;2022-12-11T14:28:53;16.47;;;6.10;;
21095;SDS011;10706;49.036;12.112;2022-12-11T14:31:22;16.23;;;6.40;;
21095;SDS011;10706;49.036;12.112;2022-12-11T14:34:02;18.20;;;5.93;;
21095;SDS011;10706;49.036;12.112;2022-12-11T14:36:41;16.67;;;5.60;;
21095;SDS011;10706;49.036;12.112;2022-12-11T14:39:16;16.50;;;5.63;;
21095;SDS011;10706;49.036;12.112;2022-12-11T14:42:11;16.60;;;6.00;;
21095;SDS011;10706;49.036;12.112;2022-12-11T14:44:55;16.70;;;6.20;;
21095;SDS011;10706;49.036;12.112;2022-12-11T14:48:02;16.87;;;5.97;;
21095;SDS011;10706;49.036;12.112;2022-12-11T14:50:40;15.47;;;6.13;;
21095;SDS011;10706;49.036;12.112;2022-12-11T14:53:28;18.03;;;6.30;;
21095;SDS011;10706;49.036;12.112;2022-12-11T14:56:02;17.53;;;6.17;;
21095;SDS011;10706;49.036;12.112;2022-12-11T14:58:31;18.23;;;6.00;;
21095;SDS011;10706;49.036;12.112;2022-12-11T15:01:20;18.43;;;7.43;;
21095;SDS011;10706;49.036;12.112;2022-12-11T15:04:03;18.70;;;7.03;;
21095;SDS011;10706;49.036;12.112;2022-12-11T15:06:51;16.87;;;7.23;;
21095;SDS011;10706;49.036;12.112;2022-12-11T15:09:24;18.23;;;6.83;;
21095;SDS011;10706;49.036;12.112;2022-12-11T15:12:06;19.13;;;7.23;;
21095;SDS011;10706;49.036;12.112;2022-12-11T15:14:55;19.10;;;7.20;;
21095;SDS011;10706;49.036;12.112;2022-12-11T15:17:27;16.20;;;6.73;;
21095;SDS011;10706;49.036;12.112;2022-12-11T15:19:55;18.00;;;7.53;;
21095;SDS011;10706;49.036;12.112;2022-12-11T15:22:32;16.23;;;7.00;;
21095;SDS011;10706;49.036;12.112;2022-12-11T15:25:00;14.97;;;6.53;;
21095;SDS011;10706;49.036;12.112;2022-12-11T15:30:01;16.70;;;6.67;;
21095;SDS011;10706;49.036;12.112;2022-12-11T15:35:34;14.60;;;6.23;;
21095;SDS011;10706;49.036;12.112;2022-12-11T15:38:02;15.47;;;5.90;;
21095;SDS011;10706;49.036;12.112;2022-12-11T15:40:28;17.23;;;6.30;;
21095;SDS011;10706;49.036;12.112;2022-12-11T15:42:54;17.40;;;5.83;;
21095;SDS011;10706;49.036;12.112;2022-12-11T15:45:22;19.07;;;5.63;;
21095;SDS011;10706;49.036;12.112;2022-12-11T15:47:52;15.20;;;6.10;;
21095;SDS011;10706;49.036;12.112;2022-12-11T15:50:20;12.20;;;5.27;;
21095;SDS011;10706;49.036;12.112;2022-12-11T15:52:51;16.93;;;6.20;;
21095;SDS011;10706;49.036;12.112;2022-12-11T15:55:19;16.00;;;6.60;;
21095;SDS011;10706;49.036;12.112;2022-12-11T15:57:54;18.60;;;6.47;;
21095;SDS011;10706;49.036;12.112;2022-12-11T16:00:23;19.73;;;6.57;;
21095;SDS011;10706;49.036;12.112;2022-12-11T16:02:51;17.33;;;6.90;;
21095;SDS011;10706;49.036;12.112;2022-12-11T16:05:17;15.60;;;6.43;;
21095;SDS011;10706;49.036;12.112;2022-12-11T16:07:43;17.57;;;6.93;;
21095;SDS011;10706;49.036;12.112;2022-12-11T16:10:12;17.87;;;6.27;;
21095;SDS011;10706;49.036;12.112;2022-12-11T16:12:41;19.77;;;6.93;;
21095;SDS011;10706;49.036;12.112;2022-12-11T16:15:08;14.13;;;6.10;;
21095;SDS011;10706;49.036;12.112;2022-12-11T16:17:36;19.43;;;6.90;;
21095;SDS011;10706;49.036;12.112;2022-12-11T16:20:03;16.37;;;6.33;;
21095;SDS011;10706;49.036;12.112;2022-12-11T16:22:29;19.97;;;6.90;;
21095;SDS011;10706;49.036;12.112;2022-12-11T16:24:55;19.13;;;7.73;;
21095;SDS011;10706;49.036;12.112;2022-12-11T16:27:21;18.50;;;7.73;;
21095;SDS011;10706;49.036;12.112;2022-12-11T16:29:47;21.00;;;7.17;;
21095;SDS011;10706;49.036;12.112;2022-12-11T16:32:14;19.57;;;7.80;;
21095;SDS011;10706;49.036;12.112;2022-12-11T16:34:40;18.77;;;7.40;;
21095;SDS011;10706;49.036;12.112;2022-12-11T16:37:06;18.40;;;7.10;;
21095;SDS011;10706;49.036;12.112;2022-12-11T16:39:33;17.70;;;7.77;;
21095;SDS011;10706;49.036;12.112;2022-12-11T16:42:01;16.60;;;6.90;;
21095;SDS011;10706;49.036;12.112;2022-12-11T16:44:28;14.27;;;5.73;;
21095;SDS011;10706;49.036;12.112;2022-12-11T16:46:53;17.20;;;6.77;;
21095;SDS011;10706;49.036;12.112;2022-12-11T16:49:19;15.30;;;6.80;;
21095;SDS011;10706;49.036;12.112;2022-12-11T16:51:46;15.10;;;5.97;;